createdAt,value
2022-10-26T00:00:07.550Z,3.38
2022-10-26T00:02:33.984Z,3.53
2022-10-26T00:05:00.495Z,3.20
2022-10-26T00:07:29.127Z,2.88
2022-10-26T00:09:55.867Z,3.40
2022-10-26T00:12:22.325Z,4.05
2022-10-26T00:14:48.827Z,3.35
2022-10-26T00:17:15.259Z,3.33
2022-10-26T00:19:41.663Z,3.50
2022-10-26T00:22:08.109Z,3.60
2022-10-26T00:24:34.564Z,3.17
2022-10-26T00:27:01.014Z,3.35
2022-10-26T00:29:27.433Z,3.50
2022-10-26T00:31:53.859Z,2.97
2022-10-26T00:34:20.322Z,2.75
2022-10-26T00:36:46.804Z,2.88
2022-10-26T00:39:13.372Z,3.25
2022-10-26T00:41:40.109Z,3.35
2022-10-26T00:44:25.090Z,2.78
2022-10-26T00:46:51.514Z,2.58
2022-10-26T00:51:53.439Z,3.30
2022-10-26T00:54:20.763Z,3.00
2022-10-26T00:56:49.470Z,3.80
2022-10-26T00:59:16.312Z,3.15
2022-10-26T01:01:44.084Z,3.05
2022-10-26T01:04:10.792Z,3.75
2022-10-26T01:06:38.048Z,2.83
2022-10-26T01:09:05.104Z,2.58
2022-10-26T01:11:31.511Z,3.13
2022-10-26T01:13:59.486Z,2.83
2022-10-26T01:16:28.619Z,2.53
2022-10-26T01:18:58.103Z,2.95
2022-10-26T01:21:24.515Z,2.42
2022-10-26T01:23:50.898Z,2.90
2022-10-26T01:26:17.317Z,3.03
2022-10-26T01:28:49.933Z,3.15
2022-10-26T01:31:19.805Z,2.40
2022-10-26T01:33:51.193Z,3.25
2022-10-26T01:36:27.413Z,2.97
2022-10-26T01:39:10.688Z,2.88
2022-10-26T01:41:39.646Z,2.60
2022-10-26T01:44:29.638Z,2.55
2022-10-26T01:46:57.804Z,2.90
2022-10-26T01:49:27.010Z,2.92
2022-10-26T01:51:53.584Z,2.42
2022-10-26T01:54:19.980Z,2.88
2022-10-26T01:56:48.557Z,2.60
2022-10-26T01:59:35.236Z,2.28
2022-10-26T02:02:16.950Z,2.60
2022-10-26T02:04:46.584Z,2.63
2022-10-26T02:07:13.031Z,2.35
2022-10-26T02:09:44.131Z,2.60
2022-10-26T02:12:18.758Z,2.55
2022-10-26T02:14:55.966Z,2.90
2022-10-26T02:17:29.667Z,2.53
2022-10-26T02:19:59.904Z,3.38
2022-10-26T02:22:33.002Z,2.95
2022-10-26T02:25:01.009Z,2.60
2022-10-26T02:27:29.455Z,2.67
2022-10-26T02:29:56.870Z,2.53
2022-10-26T02:32:25.369Z,2.63
2022-10-26T02:34:52.656Z,2.25
2022-10-26T02:37:20.397Z,2.35
2022-10-26T02:39:48.109Z,2.33
2022-10-26T02:42:15.516Z,2.50
2022-10-26T02:44:44.367Z,2.30
2022-10-26T02:47:11.330Z,2.10
2022-10-26T02:49:37.960Z,2.20
2022-10-26T02:52:10.672Z,2.05
2022-10-26T02:54:52.523Z,2.40
2022-10-26T02:57:20.875Z,2.15
2022-10-26T02:59:48.019Z,2.35
2022-10-26T03:02:16.339Z,2.05
2022-10-26T03:04:42.784Z,2.28
2022-10-26T03:07:09.394Z,2.58
2022-10-26T03:09:35.775Z,2.50
2022-10-26T03:12:02.314Z,1.80
2022-10-26T03:14:28.771Z,2.30
2022-10-26T03:16:55.299Z,2.45
2022-10-26T03:19:21.843Z,2.42
2022-10-26T03:21:48.376Z,2.22
2022-10-26T03:24:14.823Z,1.80
2022-10-26T03:26:41.285Z,2.40
2022-10-26T03:29:09.024Z,2.45
2022-10-26T03:31:35.819Z,2.40
2022-10-26T03:34:02.238Z,2.10
2022-10-26T03:36:28.663Z,2.20
2022-10-26T03:38:55.075Z,2.03
2022-10-26T03:41:21.550Z,2.22
2022-10-26T03:43:48.897Z,1.92
2022-10-26T03:46:15.334Z,2.67
2022-10-26T03:48:41.724Z,1.90
2022-10-26T03:51:08.391Z,2.35
2022-10-26T03:53:35.004Z,1.92
2022-10-26T03:56:01.457Z,1.70
2022-10-26T03:58:27.903Z,2.17
2022-10-26T04:00:54.372Z,1.70
2022-10-26T04:03:20.785Z,1.63
2022-10-26T04:05:47.167Z,1.60
2022-10-26T04:08:13.765Z,2.10
2022-10-26T04:10:40.200Z,1.70
2022-10-26T04:13:06.626Z,1.70
2022-10-26T04:15:33.152Z,1.65
2022-10-26T04:18:00.871Z,1.98
2022-10-26T04:20:28.467Z,1.48
2022-10-26T04:23:01.717Z,1.80
2022-10-26T04:25:31.722Z,1.40
2022-10-26T04:28:00.266Z,1.73
2022-10-26T04:30:27.116Z,1.67
2022-10-26T04:32:53.492Z,1.48
2022-10-26T04:35:19.975Z,1.98
2022-10-26T04:37:46.377Z,1.30
2022-10-26T04:40:12.833Z,1.45
2022-10-26T04:42:46.501Z,1.90
2022-10-26T04:45:14.557Z,1.65
2022-10-26T04:47:41.362Z,1.48
2022-10-26T04:50:08.566Z,2.30
2022-10-26T04:52:35.354Z,1.50
2022-10-26T04:55:05.888Z,1.55
2022-10-26T04:57:33.448Z,1.80
2022-10-26T05:00:00.686Z,1.52
2022-10-26T05:02:28.132Z,1.98
2022-10-26T05:04:54.939Z,1.60
2022-10-26T05:07:21.560Z,1.55
2022-10-26T05:09:47.998Z,1.88
2022-10-26T05:12:14.459Z,1.60
2022-10-26T05:14:40.933Z,1.95
2022-10-26T05:17:07.336Z,1.83
2022-10-26T05:19:33.755Z,1.42
2022-10-26T05:22:00.171Z,1.60
2022-10-26T05:24:26.603Z,1.40
2022-10-26T05:26:53.079Z,2.15
2022-10-26T05:29:19.524Z,1.50
2022-10-26T05:31:45.947Z,1.30
2022-10-26T05:34:12.398Z,1.60
2022-10-26T05:36:38.847Z,1.73
2022-10-26T05:39:05.323Z,1.50
2022-10-26T05:41:31.746Z,1.70
2022-10-26T05:43:58.204Z,1.60
2022-10-26T05:46:24.679Z,1.75
2022-10-26T05:48:51.127Z,1.48
2022-10-26T05:51:17.549Z,1.90
2022-10-26T05:53:43.972Z,1.73
2022-10-26T05:56:18.012Z,1.58
2022-10-26T05:58:44.873Z,1.60
2022-10-26T06:01:28.758Z,1.63
2022-10-26T06:03:55.246Z,1.77
2022-10-26T06:06:22.297Z,1.63
2022-10-26T06:08:48.897Z,2.35
2022-10-26T06:11:15.431Z,1.50
2022-10-26T06:13:41.990Z,1.98
2022-10-26T06:16:18.231Z,1.60
2022-10-26T06:19:01.016Z,2.05
2022-10-26T06:21:28.358Z,1.50
2022-10-26T06:24:13.616Z,2.35
2022-10-26T06:26:43.963Z,2.03
2022-10-26T06:29:33.420Z,1.90
2022-10-26T06:31:59.899Z,2.35
2022-10-26T06:34:29.065Z,1.73
2022-10-26T06:36:58.256Z,1.88
2022-10-26T06:39:25.943Z,1.70
2022-10-26T06:41:52.625Z,1.52
2022-10-26T06:44:23.680Z,1.58
2022-10-26T06:46:53.255Z,1.83
2022-10-26T06:49:38.433Z,1.65
2022-10-26T06:52:07.888Z,1.83
2022-10-26T06:54:34.327Z,1.63
2022-10-26T06:57:01.099Z,2.38
2022-10-26T06:59:33.730Z,1.52
2022-10-26T07:02:02.926Z,2.00
2022-10-26T07:04:32.181Z,1.70
2022-10-26T07:06:58.680Z,1.77
2022-10-26T07:09:25.137Z,2.40
2022-10-26T07:11:51.607Z,2.28
2022-10-26T07:14:18.123Z,1.60
2022-10-26T07:16:44.600Z,1.90
2022-10-26T07:19:11.032Z,1.70
2022-10-26T07:21:37.479Z,1.70
2022-10-26T07:24:03.956Z,1.95
2022-10-26T07:26:30.383Z,1.65
2022-10-26T07:28:56.889Z,1.60
2022-10-26T07:31:23.329Z,1.60
2022-10-26T07:33:49.920Z,1.58
2022-10-26T07:36:16.357Z,2.40
2022-10-26T07:38:42.756Z,1.38
2022-10-26T07:41:09.199Z,1.77
2022-10-26T07:43:35.629Z,2.25
2022-10-26T07:46:02.172Z,2.83
2022-10-26T07:48:28.933Z,1.63
2022-10-26T07:50:55.404Z,2.00
2022-10-26T07:53:26.771Z,1.65
2022-10-26T07:55:55.137Z,1.67
2022-10-26T07:58:23.685Z,1.58
2022-10-26T08:00:50.740Z,1.52
2022-10-26T08:03:17.582Z,1.38
2022-10-26T08:05:46.582Z,1.40
2022-10-26T08:08:13.548Z,1.40
2022-10-26T08:10:46.618Z,1.70
2022-10-26T08:13:13.601Z,1.60
2022-10-26T08:15:40.434Z,1.50
2022-10-26T08:18:06.879Z,1.70
2022-10-26T08:20:33.309Z,1.23
2022-10-26T08:23:01.185Z,1.38
2022-10-26T08:25:27.622Z,1.20
2022-10-26T08:27:54.416Z,1.50
2022-10-26T08:30:21.041Z,1.70
2022-10-26T08:32:47.723Z,1.58
2022-10-26T08:35:14.650Z,1.40
2022-10-26T08:37:41.060Z,1.30
2022-10-26T08:40:07.830Z,1.52
2022-10-26T08:42:38.758Z,1.27
2022-10-26T08:45:36.633Z,1.40
2022-10-26T08:48:05.842Z,1.40
2022-10-26T08:50:37.099Z,1.60
2022-10-26T08:53:12.958Z,1.30
2022-10-26T08:55:44.662Z,1.27
2022-10-26T08:58:15.254Z,1.00
2022-10-26T09:00:41.995Z,1.70
2022-10-26T09:03:15.277Z,1.60
2022-10-26T09:05:56.496Z,1.20
2022-10-26T09:08:36.801Z,1.17
2022-10-26T09:11:07.996Z,0.90
2022-10-26T09:13:56.419Z,1.17
2022-10-26T09:16:25.398Z,1.10
2022-10-26T09:19:02.891Z,1.27
2022-10-26T09:21:35.610Z,0.73
2022-10-26T09:24:15.856Z,0.90
2022-10-26T09:26:42.307Z,0.90
2022-10-26T09:29:12.680Z,1.63
2022-10-26T09:31:43.156Z,1.13
2022-10-26T09:34:16.578Z,1.38
2022-10-26T09:36:43.010Z,1.38
2022-10-26T09:39:21.244Z,1.30
2022-10-26T09:41:55.699Z,1.40
2022-10-26T09:44:31.531Z,1.10
2022-10-26T09:47:07.086Z,1.13
2022-10-26T09:49:37.598Z,1.15
2022-10-26T09:52:04.229Z,1.08
2022-10-26T09:54:30.690Z,0.80
2022-10-26T09:57:00.443Z,1.02
2022-10-26T09:59:26.976Z,1.85
2022-10-26T10:01:53.642Z,1.35
2022-10-26T10:04:25.984Z,1.02
2022-10-26T10:09:18.838Z,0.98
2022-10-26T10:11:55.184Z,0.93
2022-10-26T10:14:35.959Z,1.58
2022-10-26T10:19:47.088Z,0.70
2022-10-26T10:22:16.207Z,1.15
2022-10-26T10:24:43.755Z,1.08
2022-10-26T10:27:14.069Z,1.30
2022-10-26T10:29:41.599Z,1.17
2022-10-26T10:32:14.310Z,0.95
2022-10-26T10:34:40.901Z,1.30
2022-10-26T10:37:07.327Z,0.98
2022-10-26T10:39:37.007Z,1.13
2022-10-26T10:42:14.102Z,1.27
2022-10-26T10:44:40.598Z,1.05
2022-10-26T10:47:07.506Z,1.15
2022-10-26T10:49:34.090Z,1.48
2022-10-26T10:52:00.628Z,0.93
2022-10-26T10:54:27.007Z,1.90
2022-10-26T10:56:55.450Z,1.10
2022-10-26T10:59:36.051Z,1.25
2022-10-26T11:02:11.727Z,1.35
2022-10-26T11:04:38.313Z,0.90
2022-10-26T11:07:06.694Z,0.90
2022-10-26T11:09:34.301Z,1.08
2022-10-26T11:12:02.936Z,0.90
2022-10-26T11:14:32.085Z,0.82
2022-10-26T11:17:01.539Z,0.70
2022-10-26T11:19:36.457Z,1.20
2022-10-26T11:22:04.124Z,0.75
2022-10-26T11:24:42.228Z,1.23
2022-10-26T11:27:14.770Z,1.10
2022-10-26T11:29:49.056Z,1.05
2022-10-26T11:32:21.610Z,0.93
2022-10-26T11:34:51.067Z,0.85
2022-10-26T11:37:23.392Z,1.13
2022-10-26T11:39:58.771Z,1.00
2022-10-26T11:42:28.484Z,0.77
2022-10-26T11:45:15.146Z,0.93
2022-10-26T11:47:48.920Z,0.80
2022-10-26T11:50:32.797Z,0.82
2022-10-26T11:53:14.771Z,1.42
2022-10-26T11:55:41.582Z,1.30
2022-10-26T11:58:11.758Z,0.95
2022-10-26T12:00:53.508Z,1.38
2022-10-26T12:03:28.621Z,0.90
2022-10-26T12:05:55.157Z,0.82
2022-10-26T12:08:24.416Z,1.20
2022-10-26T12:11:05.436Z,0.85
2022-10-26T12:13:31.831Z,0.60
2022-10-26T12:16:03.901Z,0.65
2022-10-26T12:18:54.380Z,0.70
2022-10-26T12:21:23.742Z,0.95
2022-10-26T12:24:13.160Z,0.70
2022-10-26T12:26:39.948Z,0.82
2022-10-26T12:29:06.407Z,0.60
2022-10-26T12:31:33.564Z,0.63
2022-10-26T12:34:00.414Z,0.80
2022-10-26T12:36:45.410Z,1.38
2022-10-26T12:39:31.853Z,0.68
2022-10-26T12:42:18.510Z,0.80
2022-10-26T12:44:48.382Z,0.68
2022-10-26T12:47:30.235Z,0.90
2022-10-26T12:50:05.664Z,0.60
2022-10-26T12:52:40.635Z,0.85
2022-10-26T12:55:13.179Z,0.50
2022-10-26T12:57:39.587Z,0.45
2022-10-26T13:00:06.519Z,0.50
2022-10-26T13:02:52.373Z,0.63
2022-10-26T13:05:25.125Z,0.55
2022-10-26T13:07:51.860Z,0.77
2022-10-26T13:10:23.015Z,0.60
2022-10-26T13:12:53.827Z,0.60
2022-10-26T13:15:20.252Z,0.60
2022-10-26T13:17:54.971Z,0.57
2022-10-26T13:20:21.489Z,0.50
2022-10-26T13:22:48.447Z,0.80
2022-10-26T13:25:35.358Z,0.50
2022-10-26T13:28:27.614Z,0.63
2022-10-26T13:30:54.044Z,0.60
2022-10-26T13:33:22.591Z,0.70
2022-10-26T13:35:51.050Z,0.75
2022-10-26T13:38:19.755Z,0.60
2022-10-26T13:40:46.713Z,0.63
2022-10-26T13:43:20.342Z,0.80
2022-10-26T13:45:53.994Z,0.90
2022-10-26T13:48:24.821Z,0.57
2022-10-26T13:53:24.575Z,0.40
2022-10-26T13:55:58.910Z,0.47
2022-10-26T13:58:29.120Z,0.60
2022-10-26T14:01:02.709Z,0.30
2022-10-26T14:03:29.231Z,0.63
2022-10-26T14:05:56.725Z,0.68
2022-10-26T14:08:23.349Z,0.70
2022-10-26T14:10:57.336Z,0.88
2022-10-26T14:13:27.690Z,0.60
2022-10-26T14:15:58.063Z,0.70
2022-10-26T14:18:28.332Z,0.70
2022-10-26T14:20:57.347Z,0.55
2022-10-26T14:23:27.550Z,0.40
2022-10-26T14:25:59.106Z,0.57
2022-10-26T14:28:28.008Z,1.15
2022-10-26T14:30:54.563Z,0.77
2022-10-26T14:33:26.137Z,0.40
2022-10-26T14:35:52.876Z,1.05
2022-10-26T14:38:22.067Z,0.47
2022-10-26T14:40:48.686Z,1.80
2022-10-26T14:43:18.401Z,0.70
2022-10-26T14:45:49.869Z,0.77
2022-10-26T14:48:24.309Z,0.82
2022-10-26T14:50:59.923Z,0.60
2022-10-26T14:53:46.556Z,0.80
2022-10-26T14:56:30.785Z,0.80
2022-10-26T14:58:58.198Z,0.75
2022-10-26T15:01:26.109Z,0.73
2022-10-26T15:03:58.245Z,0.80
2022-10-26T15:06:41.398Z,0.75
2022-10-26T15:09:27.789Z,1.13
2022-10-26T15:11:54.233Z,0.60
2022-10-26T15:14:20.709Z,0.77
2022-10-26T15:16:54.540Z,0.80
2022-10-26T15:19:23.923Z,1.45
2022-10-26T15:21:51.279Z,0.63
2022-10-26T15:24:30.982Z,0.80
2022-10-26T15:27:00.024Z,0.98
2022-10-26T15:29:35.304Z,0.80
2022-10-26T15:32:02.498Z,0.73
2022-10-26T15:34:29.041Z,0.75
2022-10-26T15:36:56.235Z,0.77
2022-10-26T15:39:22.849Z,0.40
2022-10-26T15:41:49.483Z,0.65
2022-10-26T15:44:20.629Z,0.45
2022-10-26T15:46:47.212Z,0.38
2022-10-26T15:49:20.255Z,0.40
2022-10-26T15:51:47.561Z,1.02
2022-10-26T15:54:14.364Z,0.50
2022-10-26T15:56:43.736Z,0.93
2022-10-26T15:59:17.630Z,0.63
2022-10-26T16:01:44.323Z,0.75
2022-10-26T16:04:12.224Z,0.70
2022-10-26T16:06:39.902Z,0.50
2022-10-26T16:09:07.543Z,0.50
2022-10-26T16:11:33.975Z,0.70
2022-10-26T16:14:03.538Z,0.65
2022-10-26T16:16:30.527Z,0.60
2022-10-26T16:19:11.709Z,0.75
2022-10-26T16:21:38.663Z,1.13
2022-10-26T16:24:05.416Z,0.52
2022-10-26T16:26:32.059Z,0.57
2022-10-26T16:28:58.740Z,0.50
2022-10-26T16:31:26.416Z,0.68
2022-10-26T16:36:38.807Z,0.60
2022-10-26T16:39:05.640Z,0.70
2022-10-26T16:41:32.299Z,0.60
2022-10-26T16:43:58.807Z,0.77
2022-10-26T16:46:25.276Z,0.82
2022-10-26T16:48:51.855Z,0.90
2022-10-26T16:51:19.541Z,1.05
2022-10-26T16:53:50.644Z,1.02
2022-10-26T16:56:18.771Z,0.98
2022-10-26T16:58:45.420Z,0.68
2022-10-26T17:01:13.158Z,1.02
2022-10-26T17:03:40.059Z,1.30
2022-10-26T17:06:07.741Z,1.05
2022-10-26T17:08:35.026Z,1.20
2022-10-26T17:11:02.383Z,1.50
2022-10-26T17:13:28.813Z,1.15
2022-10-26T17:15:55.307Z,1.10
2022-10-26T17:18:21.732Z,1.33
2022-10-26T17:20:51.312Z,1.35
2022-10-26T17:23:17.866Z,1.35
2022-10-26T17:25:44.606Z,1.45
2022-10-26T17:28:11.864Z,1.58
2022-10-26T17:30:38.395Z,1.70
2022-10-26T17:33:04.901Z,1.60
2022-10-26T17:35:32.440Z,1.80
2022-10-26T17:37:58.987Z,1.40
2022-10-26T17:40:25.497Z,2.17
2022-10-26T17:42:51.969Z,2.08
2022-10-26T17:45:18.398Z,2.03
2022-10-26T17:47:44.952Z,2.75
2022-10-26T17:50:11.793Z,2.35
2022-10-26T17:52:38.261Z,2.50
2022-10-26T17:55:04.967Z,2.60
2022-10-26T17:57:32.299Z,3.17
2022-10-26T17:59:58.746Z,2.80
2022-10-26T18:02:25.367Z,3.47
2022-10-26T18:04:51.871Z,3.90
2022-10-26T18:07:18.315Z,3.05
2022-10-26T18:09:44.755Z,3.53
2022-10-26T18:12:11.147Z,3.50
2022-10-26T18:14:37.628Z,3.90
2022-10-26T18:17:04.389Z,3.88
2022-10-26T18:19:30.812Z,3.55
2022-10-26T18:21:57.297Z,3.65
2022-10-26T18:24:23.758Z,3.80
2022-10-26T18:26:50.212Z,3.75
2022-10-26T18:29:16.719Z,4.10
2022-10-26T18:31:44.116Z,4.25
2022-10-26T18:34:11.049Z,4.43
2022-10-26T18:39:08.882Z,4.47
2022-10-26T18:44:19.426Z,4.60
2022-10-26T18:46:48.292Z,4.95
2022-10-26T18:49:16.706Z,4.70
2022-10-26T18:51:43.166Z,4.70
2022-10-26T18:54:09.805Z,4.82
2022-10-26T18:56:36.327Z,5.28
2022-10-26T18:59:02.861Z,4.68
2022-10-26T19:01:33.720Z,4.95
2022-10-26T19:04:01.371Z,5.32
2022-10-26T19:06:29.378Z,5.30
2022-10-26T19:08:56.358Z,5.90
2022-10-26T19:11:24.322Z,5.45
2022-10-26T19:13:52.830Z,5.78
2022-10-26T19:16:45.929Z,6.47
2022-10-26T19:19:08.902Z,5.68
2022-10-26T19:21:35.543Z,5.53
2022-10-26T19:24:02.224Z,6.40
2022-10-26T19:26:33.430Z,6.60
2022-10-26T19:29:04.054Z,6.38
2022-10-26T19:31:33.587Z,6.60
2022-10-26T19:34:00.246Z,7.05
2022-10-26T19:36:27.366Z,6.75
2022-10-26T19:38:54.316Z,6.82
2022-10-26T19:41:23.423Z,6.97
2022-10-26T19:43:50.249Z,6.90
2022-10-26T19:46:21.309Z,7.07
2022-10-26T19:48:48.775Z,6.93
2022-10-26T19:51:15.215Z,6.85
2022-10-26T19:53:42.171Z,7.10
2022-10-26T19:56:12.453Z,6.28
2022-10-26T19:58:42.983Z,7.25
2022-10-26T20:01:10.298Z,6.93
2022-10-26T20:03:37.293Z,6.25
2022-10-26T20:06:08.161Z,6.95
2022-10-26T20:08:35.847Z,6.45
2022-10-26T20:11:02.366Z,6.38
2022-10-26T20:13:31.378Z,6.95
2022-10-26T20:16:03.780Z,6.63
2022-10-26T20:18:44.403Z,6.63
2022-10-26T20:21:15.539Z,6.82
2022-10-26T20:23:42.699Z,6.53
2022-10-26T20:26:11.760Z,7.38
2022-10-26T20:28:43.748Z,6.90
2022-10-26T20:31:10.321Z,6.70
2022-10-26T20:33:36.725Z,7.15
2022-10-26T20:36:03.169Z,7.65
2022-10-26T20:38:30.248Z,8.15
2022-10-26T20:40:58.108Z,7.18
2022-10-26T20:43:25.758Z,7.32
2022-10-26T20:45:52.761Z,7.35
2022-10-26T20:48:19.434Z,7.32
2022-10-26T20:50:51.027Z,6.80
2022-10-26T20:53:26.006Z,6.97
2022-10-26T20:55:57.817Z,6.70
2022-10-26T20:58:39.694Z,7.65
2022-10-26T21:01:26.677Z,7.03
2022-10-26T21:03:54.189Z,7.13
2022-10-26T21:06:20.625Z,6.50
2022-10-26T21:08:50.390Z,6.90
2022-10-26T21:11:17.152Z,7.38
2022-10-26T21:13:44.185Z,6.93
2022-10-26T21:16:10.682Z,6.95
2022-10-26T21:18:37.164Z,7.15
2022-10-26T21:21:03.647Z,8.02
2022-10-26T21:23:39.749Z,7.22
2022-10-26T21:26:06.557Z,7.25
2022-10-26T21:28:46.353Z,7.18
2022-10-26T21:31:13.885Z,7.55
2022-10-26T21:33:40.363Z,7.13
2022-10-26T21:36:07.808Z,7.07
2022-10-26T21:38:34.507Z,7.47
2022-10-26T21:41:01.933Z,6.90
2022-10-26T21:43:28.349Z,7.50
2022-10-26T21:46:03.431Z,7.50
2022-10-26T21:48:31.314Z,7.20
2022-10-26T21:50:57.761Z,7.10
2022-10-26T21:53:26.152Z,6.43
2022-10-26T21:55:59.416Z,7.78
2022-10-26T21:58:25.850Z,6.95
2022-10-26T22:00:52.323Z,7.40
2022-10-26T22:03:18.754Z,7.45
2022-10-26T22:05:51.211Z,6.70
2022-10-26T22:08:17.633Z,6.43
2022-10-26T22:10:44.063Z,6.72
2022-10-26T22:13:10.483Z,6.95
2022-10-26T22:15:37.107Z,7.00
2022-10-26T22:18:03.667Z,6.88
2022-10-26T22:20:30.086Z,7.47
2022-10-26T22:22:56.571Z,6.97
2022-10-26T22:25:23.058Z,6.78
2022-10-26T22:27:49.812Z,6.80
2022-10-26T22:30:16.538Z,6.88
2022-10-26T22:32:43.312Z,6.90
2022-10-26T22:35:24.705Z,6.18
2022-10-26T22:37:56.125Z,6.75
2022-10-26T22:40:22.560Z,6.50
2022-10-26T22:42:51.015Z,6.00
2022-10-26T22:45:17.643Z,6.10
2022-10-26T22:47:44.127Z,6.40
2022-10-26T22:50:10.854Z,6.30
2022-10-26T22:52:37.328Z,6.22
2022-10-26T22:55:06.553Z,5.97
2022-10-26T22:57:33.207Z,6.22
2022-10-26T22:59:59.617Z,5.82
2022-10-26T23:02:26.124Z,6.28
2022-10-26T23:04:52.607Z,5.43
2022-10-26T23:07:19.293Z,5.68
2022-10-26T23:09:45.715Z,6.55
2022-10-26T23:12:12.135Z,6.10
2022-10-26T23:14:38.570Z,5.63
2022-10-26T23:17:06.250Z,5.45
2022-10-26T23:19:32.665Z,4.82
2022-10-26T23:21:59.144Z,6.03
2022-10-26T23:24:25.595Z,5.43
2022-10-26T23:26:51.989Z,5.60
2022-10-26T23:29:18.464Z,5.38
2022-10-26T23:31:44.901Z,5.28
2022-10-26T23:34:11.340Z,5.57
2022-10-26T23:36:37.762Z,4.90
2022-10-26T23:39:04.191Z,5.25
2022-10-26T23:41:30.648Z,4.43
2022-10-26T23:43:57.103Z,5.15
2022-10-26T23:46:23.574Z,5.50
2022-10-26T23:48:50.060Z,5.00
2022-10-26T23:51:16.528Z,4.70
2022-10-26T23:53:43.089Z,5.40
2022-10-26T23:56:09.574Z,5.05
2022-10-26T23:58:36.006Z,5.50
